CheckWX is a tool to help pilots better visualize weather data.  It is not intended as a substitute for an official pre-flight weather briefing.

07:25:24 UTC

DAUO TAF
Guemar Airport
Guemar, Algeria
TAF DAUO 142300Z 1500/1509 05014KT 6000 SCT033 PROB40 TEMPO 1500/1504 09015G30KT 1500 BLSA FEW033CB PROB30 TEMPO 1500/1503 -TSRA DRSA FEW033CB

Jul-15@
00:00 UTC

Jul-15 @ 00:00 UTC

Jul-15@
09:00 UTC

Jul-15 @ 09:00 UTC

TAF DAUO 142300Z 1500/1509 05014KT 6000 SCT033
Wind
  • 050° at 14 KTS
Cloud Levels
  • Scattered at 3,300' AGL

Jul-15@
00:00 UTC

Jul-15 @ 00:00 UTC

Jul-15@
03:00 UTC

Jul-15 @ 03:00 UTC

PROB30 TEMPO 1500/1503 -TSRA DRSA FEW033CB

Expired

Conditions
Light Thunderstorm, Rain, Low drifting Sand
Cloud Levels
  • Few at 3,300' AGL

Jul-15@
00:00 UTC

Jul-15 @ 00:00 UTC

Jul-15@
04:00 UTC

Jul-15 @ 04:00 UTC

PROB40 TEMPO 1500/1504 09015G30KT 1500 BLSA FEW033CB

Expired

Wind
  • 090° at 15 KTS
  • {Gusting to 30 KTS
Conditions
Blowing Sand
Cloud Levels
  • Few at 3,300' AGL